AER weather

Sochi International Airport
Sochi, Krasnodar Krai, Russia

Public forecast

Using degrees Celsius for public forecast. Weather courtesy of forecast.io.

METAR (pilot weather report)

Retrieved 2019/03/26 22:00 UTC (15 seconds ago):

URSS 262200Z 06002MPS 9999 NSC 04/02 Q1013 R02/010070 R06/010070 NOSIG RMK R06/07002MPS QFE758

TAF (pilot weather forecast)

Retrieved 2019/03/26 21:00 UTC (1 hour ago):

TAF URSS 261956Z 2621/2721 05006MPS 9999 NSC BECMG 2707/2708 17005MPS SCT020 TEMPO 2708/2711 22005MPS BECMG 2711/2712 27005G10MPS BKN030CB OVC100 BECMG 2716/2717 05006MPS TEMPO 2717/2721 15005MPS 3100 -SHRA BR BKN011 BKN020CB OVC100